sensor_id;sensor_type;location;lat;lon;timestamp;P1;durP1;ratioP1;P2;durP2;ratioP2
44026;SDS011;29696;55.698;37.460;2023-02-01T00:00:26;18.93;;;11.63;;
44026;SDS011;29696;55.698;37.460;2023-02-01T00:02:52;20.17;;;12.10;;
44026;SDS011;29696;55.698;37.460;2023-02-01T00:05:19;19.30;;;9.70;;
44026;SDS011;29696;55.698;37.460;2023-02-01T00:07:46;19.77;;;11.97;;
44026;SDS011;29696;55.698;37.460;2023-02-01T00:10:14;16.37;;;11.43;;
44026;SDS011;29696;55.698;37.460;2023-02-01T00:12:41;17.00;;;10.30;;
44026;SDS011;29696;55.698;37.460;2023-02-01T00:15:07;16.57;;;9.17;;
44026;SDS011;29696;55.698;37.460;2023-02-01T00:17:34;16.10;;;11.67;;
44026;SDS011;29696;55.698;37.460;2023-02-01T00:20:01;14.80;;;10.20;;
44026;SDS011;29696;55.698;37.460;2023-02-01T00:22:28;14.57;;;10.20;;
44026;SDS011;29696;55.698;37.460;2023-02-01T00:24:55;20.13;;;11.90;;
44026;SDS011;29696;55.698;37.460;2023-02-01T00:27:21;16.23;;;9.87;;
44026;SDS011;29696;55.698;37.460;2023-02-01T00:29:47;20.00;;;10.63;;
44026;SDS011;29696;55.698;37.460;2023-02-01T00:32:14;18.47;;;10.73;;
44026;SDS011;29696;55.698;37.460;2023-02-01T00:34:41;15.43;;;9.27;;
44026;SDS011;29696;55.698;37.460;2023-02-01T00:37:07;17.67;;;10.43;;
44026;SDS011;29696;55.698;37.460;2023-02-01T00:39:34;14.77;;;9.30;;
44026;SDS011;29696;55.698;37.460;2023-02-01T00:42:00;16.37;;;11.87;;
44026;SDS011;29696;55.698;37.460;2023-02-01T00:44:28;14.53;;;10.10;;
44026;SDS011;29696;55.698;37.460;2023-02-01T00:46:59;18.63;;;10.50;;
44026;SDS011;29696;55.698;37.460;2023-02-01T00:49:26;16.73;;;9.83;;
44026;SDS011;29696;55.698;37.460;2023-02-01T00:51:52;16.43;;;10.33;;
44026;SDS011;29696;55.698;37.460;2023-02-01T00:54:19;17.90;;;10.90;;
44026;SDS011;29696;55.698;37.460;2023-02-01T00:56:45;19.60;;;10.53;;
44026;SDS011;29696;55.698;37.460;2023-02-01T00:59:11;19.60;;;11.73;;
44026;SDS011;29696;55.698;37.460;2023-02-01T01:01:38;15.17;;;10.70;;
44026;SDS011;29696;55.698;37.460;2023-02-01T01:04:05;14.50;;;10.50;;
44026;SDS011;29696;55.698;37.460;2023-02-01T01:06:32;18.67;;;11.30;;
44026;SDS011;29696;55.698;37.460;2023-02-01T01:08:59;16.80;;;9.33;;
44026;SDS011;29696;55.698;37.460;2023-02-01T01:11:29;19.43;;;10.87;;
44026;SDS011;29696;55.698;37.460;2023-02-01T01:13:58;19.13;;;11.33;;
44026;SDS011;29696;55.698;37.460;2023-02-01T01:16:26;20.40;;;10.83;;
44026;SDS011;29696;55.698;37.460;2023-02-01T01:18:54;15.30;;;9.17;;
44026;SDS011;29696;55.698;37.460;2023-02-01T01:21:21;16.50;;;10.67;;
44026;SDS011;29696;55.698;37.460;2023-02-01T01:23:48;17.03;;;10.43;;
44026;SDS011;29696;55.698;37.460;2023-02-01T01:26:16;15.80;;;9.40;;
44026;SDS011;29696;55.698;37.460;2023-02-01T01:28:44;14.00;;;9.63;;
44026;SDS011;29696;55.698;37.460;2023-02-01T01:31:12;14.43;;;10.60;;
44026;SDS011;29696;55.698;37.460;2023-02-01T01:33:40;14.23;;;9.33;;
44026;SDS011;29696;55.698;37.460;2023-02-01T01:36:08;14.13;;;10.97;;
44026;SDS011;29696;55.698;37.460;2023-02-01T01:38:39;18.37;;;11.07;;
44026;SDS011;29696;55.698;37.460;2023-02-01T01:41:06;22.17;;;11.17;;
44026;SDS011;29696;55.698;37.460;2023-02-01T01:43:47;13.43;;;9.77;;
44026;SDS011;29696;55.698;37.460;2023-02-01T01:46:22;16.27;;;10.10;;
44026;SDS011;29696;55.698;37.460;2023-02-01T01:48:56;19.20;;;11.03;;
44026;SDS011;29696;55.698;37.460;2023-02-01T01:51:40;17.88;;;10.43;;
44026;SDS011;29696;55.698;37.460;2023-02-01T01:54:17;16.20;;;9.60;;
44026;SDS011;29696;55.698;37.460;2023-02-01T01:56:48;16.63;;;9.57;;
44026;SDS011;29696;55.698;37.460;2023-02-01T01:59:22;15.60;;;10.20;;
44026;SDS011;29696;55.698;37.460;2023-02-01T02:01:50;14.03;;;9.27;;
44026;SDS011;29696;55.698;37.460;2023-02-01T02:04:17;16.50;;;10.93;;
44026;SDS011;29696;55.698;37.460;2023-02-01T02:12:18;17.43;;;9.87;;
44026;SDS011;29696;55.698;37.460;2023-02-01T02:14:44;16.30;;;8.83;;
44026;SDS011;29696;55.698;37.460;2023-02-01T02:27:06;17.13;;;11.27;;
44026;SDS011;29696;55.698;37.460;2023-02-01T02:39:53;17.13;;;10.17;;
44026;SDS011;29696;55.698;37.460;2023-02-01T02:49:25;15.63;;;10.38;;
44026;SDS011;29696;55.698;37.460;2023-02-01T02:52:11;17.17;;;10.80;;
44026;SDS011;29696;55.698;37.460;2023-02-01T02:55:01;18.47;;;10.87;;
44026;SDS011;29696;55.698;37.460;2023-02-01T02:57:32;18.83;;;11.67;;
44026;SDS011;29696;55.698;37.460;2023-02-01T03:00:22;20.17;;;11.47;;
44026;SDS011;29696;55.698;37.460;2023-02-01T03:03:11;18.10;;;10.57;;
44026;SDS011;29696;55.698;37.460;2023-02-01T03:05:56;16.50;;;10.95;;
44026;SDS011;29696;55.698;37.460;2023-02-01T03:08:24;13.77;;;9.63;;
44026;SDS011;29696;55.698;37.460;2023-02-01T03:13:59;15.53;;;9.47;;
44026;SDS011;29696;55.698;37.460;2023-02-01T03:16:36;17.93;;;10.77;;
44026;SDS011;29696;55.698;37.460;2023-02-01T03:22:14;15.90;;;10.03;;
44026;SDS011;29696;55.698;37.460;2023-02-01T03:24:49;17.03;;;12.20;;
44026;SDS011;29696;55.698;37.460;2023-02-01T03:33:05;15.10;;;9.93;;
44026;SDS011;29696;55.698;37.460;2023-02-01T03:44:39;23.40;;;11.60;;
44026;SDS011;29696;55.698;37.460;2023-02-01T03:47:22;19.45;;;13.70;;
44026;SDS011;29696;55.698;37.460;2023-02-01T03:52:52;21.43;;;11.70;;
44026;SDS011;29696;55.698;37.460;2023-02-01T03:55:29;22.20;;;11.27;;
44026;SDS011;29696;55.698;37.460;2023-02-01T04:03:38;18.30;;;11.07;;
44026;SDS011;29696;55.698;37.460;2023-02-01T04:06:04;19.23;;;11.37;;
44026;SDS011;29696;55.698;37.460;2023-02-01T04:08:31;17.00;;;12.17;;
44026;SDS011;29696;55.698;37.460;2023-02-01T04:10:57;20.67;;;11.63;;
44026;SDS011;29696;55.698;37.460;2023-02-01T04:13:23;23.07;;;13.13;;
44026;SDS011;29696;55.698;37.460;2023-02-01T04:15:50;17.77;;;11.43;;
44026;SDS011;29696;55.698;37.460;2023-02-01T04:18:16;20.43;;;12.00;;
44026;SDS011;29696;55.698;37.460;2023-02-01T04:20:42;19.90;;;11.10;;
44026;SDS011;29696;55.698;37.460;2023-02-01T04:23:09;19.27;;;12.70;;
44026;SDS011;29696;55.698;37.460;2023-02-01T04:25:36;21.73;;;13.63;;
44026;SDS011;29696;55.698;37.460;2023-02-01T04:28:02;19.40;;;11.53;;
44026;SDS011;29696;55.698;37.460;2023-02-01T04:30:28;18.67;;;11.77;;
44026;SDS011;29696;55.698;37.460;2023-02-01T04:32:55;18.23;;;12.27;;
44026;SDS011;29696;55.698;37.460;2023-02-01T04:35:21;15.50;;;12.90;;
44026;SDS011;29696;55.698;37.460;2023-02-01T04:37:47;19.97;;;11.77;;
44026;SDS011;29696;55.698;37.460;2023-02-01T04:40:14;22.90;;;13.27;;
44026;SDS011;29696;55.698;37.460;2023-02-01T04:42:40;20.60;;;12.33;;
44026;SDS011;29696;55.698;37.460;2023-02-01T04:45:06;23.33;;;13.30;;
44026;SDS011;29696;55.698;37.460;2023-02-01T04:47:34;22.60;;;13.80;;
44026;SDS011;29696;55.698;37.460;2023-02-01T04:50:00;20.53;;;13.17;;
44026;SDS011;29696;55.698;37.460;2023-02-01T04:52:28;19.33;;;11.77;;
44026;SDS011;29696;55.698;37.460;2023-02-01T04:54:54;27.23;;;14.63;;
44026;SDS011;29696;55.698;37.460;2023-02-01T04:57:23;20.23;;;13.50;;
44026;SDS011;29696;55.698;37.460;2023-02-01T04:59:49;24.20;;;14.73;;
44026;SDS011;29696;55.698;37.460;2023-02-01T05:02:15;24.77;;;15.30;;
44026;SDS011;29696;55.698;37.460;2023-02-01T05:04:42;22.30;;;13.80;;
44026;SDS011;29696;55.698;37.460;2023-02-01T05:07:08;23.63;;;14.40;;
44026;SDS011;29696;55.698;37.460;2023-02-01T05:09:34;24.70;;;13.30;;
44026;SDS011;29696;55.698;37.460;2023-02-01T05:12:01;33.47;;;15.97;;
44026;SDS011;29696;55.698;37.460;2023-02-01T05:14:45;29.50;;;16.88;;
44026;SDS011;29696;55.698;37.460;2023-02-01T05:17:13;27.43;;;14.07;;
44026;SDS011;29696;55.698;37.460;2023-02-01T05:19:39;23.77;;;13.33;;
44026;SDS011;29696;55.698;37.460;2023-02-01T05:22:06;22.97;;;13.33;;
44026;SDS011;29696;55.698;37.460;2023-02-01T05:24:33;23.67;;;13.53;;
44026;SDS011;29696;55.698;37.460;2023-02-01T05:26:59;25.27;;;15.23;;
44026;SDS011;29696;55.698;37.460;2023-02-01T05:29:25;22.63;;;14.67;;
44026;SDS011;29696;55.698;37.460;2023-02-01T05:31:51;27.13;;;14.33;;
44026;SDS011;29696;55.698;37.460;2023-02-01T05:34:18;23.03;;;15.47;;
44026;SDS011;29696;55.698;37.460;2023-02-01T05:36:44;22.90;;;12.67;;
44026;SDS011;29696;55.698;37.460;2023-02-01T05:39:11;22.47;;;14.73;;
44026;SDS011;29696;55.698;37.460;2023-02-01T05:41:37;30.93;;;15.93;;
44026;SDS011;29696;55.698;37.460;2023-02-01T05:44:03;26.70;;;16.27;;
44026;SDS011;29696;55.698;37.460;2023-02-01T05:46:33;25.73;;;14.17;;
44026;SDS011;29696;55.698;37.460;2023-02-01T05:49:00;30.47;;;16.57;;
44026;SDS011;29696;55.698;37.460;2023-02-01T05:51:26;25.47;;;16.03;;
44026;SDS011;29696;55.698;37.460;2023-02-01T05:53:53;30.97;;;15.60;;
44026;SDS011;29696;55.698;37.460;2023-02-01T05:56:19;29.50;;;14.43;;
44026;SDS011;29696;55.698;37.460;2023-02-01T05:58:45;24.23;;;15.17;;
44026;SDS011;29696;55.698;37.460;2023-02-01T06:01:12;35.17;;;15.50;;
44026;SDS011;29696;55.698;37.460;2023-02-01T06:03:38;28.70;;;18.00;;
44026;SDS011;29696;55.698;37.460;2023-02-01T06:06:04;30.97;;;16.17;;
44026;SDS011;29696;55.698;37.460;2023-02-01T06:08:31;26.67;;;16.13;;
44026;SDS011;29696;55.698;37.460;2023-02-01T06:10:59;26.20;;;15.53;;
44026;SDS011;29696;55.698;37.460;2023-02-01T06:13:26;31.10;;;15.87;;
44026;SDS011;29696;55.698;37.460;2023-02-01T06:15:53;28.50;;;17.43;;
44026;SDS011;29696;55.698;37.460;2023-02-01T06:18:19;25.43;;;17.07;;
44026;SDS011;29696;55.698;37.460;2023-02-01T06:20:51;31.50;;;16.50;;
44026;SDS011;29696;55.698;37.460;2023-02-01T06:23:21;29.25;;;15.77;;
44026;SDS011;29696;55.698;37.460;2023-02-01T06:25:50;28.70;;;15.87;;
44026;SDS011;29696;55.698;37.460;2023-02-01T06:28:17;32.57;;;16.03;;
44026;SDS011;29696;55.698;37.460;2023-02-01T06:30:44;29.77;;;19.03;;
44026;SDS011;29696;55.698;37.460;2023-02-01T06:33:13;26.37;;;14.40;;
44026;SDS011;29696;55.698;37.460;2023-02-01T06:35:41;25.80;;;13.83;;
44026;SDS011;29696;55.698;37.460;2023-02-01T06:38:10;31.77;;;16.97;;
44026;SDS011;29696;55.698;37.460;2023-02-01T06:40:37;26.17;;;14.83;;
44026;SDS011;29696;55.698;37.460;2023-02-01T06:43:04;31.73;;;17.17;;
44026;SDS011;29696;55.698;37.460;2023-02-01T06:45:30;29.13;;;16.77;;
44026;SDS011;29696;55.698;37.460;2023-02-01T06:47:58;31.43;;;17.83;;
44026;SDS011;29696;55.698;37.460;2023-02-01T06:50:25;28.90;;;15.20;;
44026;SDS011;29696;55.698;37.460;2023-02-01T06:52:52;29.80;;;17.47;;
44026;SDS011;29696;55.698;37.460;2023-02-01T06:55:18;27.77;;;16.23;;
44026;SDS011;29696;55.698;37.460;2023-02-01T06:57:44;33.73;;;16.87;;
44026;SDS011;29696;55.698;37.460;2023-02-01T07:00:11;25.83;;;15.83;;
44026;SDS011;29696;55.698;37.460;2023-02-01T07:02:37;32.33;;;19.43;;
44026;SDS011;29696;55.698;37.460;2023-02-01T07:05:04;32.83;;;17.00;;
44026;SDS011;29696;55.698;37.460;2023-02-01T07:07:31;29.07;;;16.47;;
44026;SDS011;29696;55.698;37.460;2023-02-01T07:09:57;31.70;;;18.40;;
44026;SDS011;29696;55.698;37.460;2023-02-01T07:12:24;24.83;;;15.87;;
44026;SDS011;29696;55.698;37.460;2023-02-01T07:14:50;26.27;;;16.07;;
44026;SDS011;29696;55.698;37.460;2023-02-01T07:17:16;27.73;;;17.53;;
44026;SDS011;29696;55.698;37.460;2023-02-01T07:19:42;28.53;;;16.43;;
44026;SDS011;29696;55.698;37.460;2023-02-01T07:22:09;24.50;;;15.60;;
44026;SDS011;29696;55.698;37.460;2023-02-01T07:24:35;29.00;;;18.90;;
44026;SDS011;29696;55.698;37.460;2023-02-01T07:27:01;31.87;;;17.27;;
44026;SDS011;29696;55.698;37.460;2023-02-01T07:29:28;29.83;;;17.63;;
44026;SDS011;29696;55.698;37.460;2023-02-01T07:31:54;32.13;;;17.93;;
44026;SDS011;29696;55.698;37.460;2023-02-01T07:34:20;25.47;;;15.90;;
44026;SDS011;29696;55.698;37.460;2023-02-01T07:36:46;27.63;;;17.87;;
44026;SDS011;29696;55.698;37.460;2023-02-01T07:39:13;27.63;;;14.37;;
44026;SDS011;29696;55.698;37.460;2023-02-01T07:41:39;25.43;;;17.13;;
44026;SDS011;29696;55.698;37.460;2023-02-01T07:44:05;31.13;;;16.00;;
44026;SDS011;29696;55.698;37.460;2023-02-01T07:46:32;27.17;;;14.63;;
44026;SDS011;29696;55.698;37.460;2023-02-01T07:48:58;29.50;;;15.83;;
44026;SDS011;29696;55.698;37.460;2023-02-01T07:51:24;29.20;;;16.43;;
44026;SDS011;29696;55.698;37.460;2023-02-01T07:53:51;29.10;;;16.47;;
44026;SDS011;29696;55.698;37.460;2023-02-01T07:56:18;28.83;;;14.67;;
44026;SDS011;29696;55.698;37.460;2023-02-01T07:58:49;29.50;;;16.53;;
44026;SDS011;29696;55.698;37.460;2023-02-01T08:01:18;26.90;;;15.43;;
44026;SDS011;29696;55.698;37.460;2023-02-01T08:03:47;22.77;;;15.47;;
44026;SDS011;29696;55.698;37.460;2023-02-01T08:06:14;21.80;;;13.13;;
44026;SDS011;29696;55.698;37.460;2023-02-01T08:08:41;25.60;;;14.40;;
44026;SDS011;29696;55.698;37.460;2023-02-01T08:11:10;22.90;;;13.60;;
44026;SDS011;29696;55.698;37.460;2023-02-01T08:13:37;25.60;;;14.77;;
44026;SDS011;29696;55.698;37.460;2023-02-01T08:16:05;28.77;;;15.60;;
44026;SDS011;29696;55.698;37.460;2023-02-01T08:18:33;24.60;;;14.40;;
44026;SDS011;29696;55.698;37.460;2023-02-01T08:21:05;26.23;;;16.47;;
44026;SDS011;29696;55.698;37.460;2023-02-01T08:23:33;25.97;;;17.43;;
44026;SDS011;29696;55.698;37.460;2023-02-01T08:26:04;27.47;;;16.47;;
44026;SDS011;29696;55.698;37.460;2023-02-01T08:28:52;29.07;;;17.00;;
44026;SDS011;29696;55.698;37.460;2023-02-01T08:31:20;37.73;;;18.77;;
44026;SDS011;29696;55.698;37.460;2023-02-01T08:33:52;32.37;;;16.27;;
44026;SDS011;29696;55.698;37.460;2023-02-01T08:36:21;26.87;;;17.27;;
44026;SDS011;29696;55.698;37.460;2023-02-01T08:38:49;37.57;;;19.50;;
44026;SDS011;29696;55.698;37.460;2023-02-01T08:41:19;36.17;;;18.07;;
44026;SDS011;29696;55.698;37.460;2023-02-01T08:43:48;31.97;;;19.87;;
44026;SDS011;29696;55.698;37.460;2023-02-01T08:46:15;29.03;;;17.37;;
44026;SDS011;29696;55.698;37.460;2023-02-01T08:48:41;29.90;;;17.77;;
44026;SDS011;29696;55.698;37.460;2023-02-01T08:51:09;28.63;;;16.83;;
44026;SDS011;29696;55.698;37.460;2023-02-01T08:53:37;30.10;;;16.43;;
44026;SDS011;29696;55.698;37.460;2023-02-01T08:56:07;26.07;;;15.87;;
44026;SDS011;29696;55.698;37.460;2023-02-01T08:58:37;42.97;;;18.80;;
44026;SDS011;29696;55.698;37.460;2023-02-01T09:01:04;28.03;;;17.20;;
44026;SDS011;29696;55.698;37.460;2023-02-01T09:03:31;24.60;;;15.97;;
44026;SDS011;29696;55.698;37.460;2023-02-01T09:06:05;29.17;;;14.70;;
44026;SDS011;29696;55.698;37.460;2023-02-01T09:08:33;23.07;;;15.17;;
44026;SDS011;29696;55.698;37.460;2023-02-01T09:11:01;30.90;;;14.43;;
44026;SDS011;29696;55.698;37.460;2023-02-01T09:13:28;20.00;;;13.13;;
44026;SDS011;29696;55.698;37.460;2023-02-01T09:15:54;26.03;;;14.77;;
44026;SDS011;29696;55.698;37.460;2023-02-01T09:18:20;24.33;;;13.13;;
44026;SDS011;29696;55.698;37.460;2023-02-01T09:20:47;28.47;;;18.37;;
44026;SDS011;29696;55.698;37.460;2023-02-01T09:23:13;26.03;;;14.17;;
44026;SDS011;29696;55.698;37.460;2023-02-01T09:25:40;28.77;;;15.20;;
44026;SDS011;29696;55.698;37.460;2023-02-01T09:28:06;24.70;;;15.27;;
44026;SDS011;29696;55.698;37.460;2023-02-01T09:30:35;33.40;;;16.70;;
44026;SDS011;29696;55.698;37.460;2023-02-01T09:33:03;25.53;;;15.17;;
44026;SDS011;29696;55.698;37.460;2023-02-01T09:35:29;30.90;;;14.90;;
44026;SDS011;29696;55.698;37.460;2023-02-01T09:37:56;23.47;;;14.97;;
44026;SDS011;29696;55.698;37.460;2023-02-01T09:40:22;22.43;;;14.03;;
44026;SDS011;29696;55.698;37.460;2023-02-01T09:43:08;20.87;;;14.17;;
44026;SDS011;29696;55.698;37.460;2023-02-01T09:46:20;31.77;;;17.37;;
44026;SDS011;29696;55.698;37.460;2023-02-01T09:48:49;26.07;;;15.63;;
44026;SDS011;29696;55.698;37.460;2023-02-01T09:51:21;27.83;;;15.70;;
44026;SDS011;29696;55.698;37.460;2023-02-01T09:53:58;23.53;;;13.83;;
44026;SDS011;29696;55.698;37.460;2023-02-01T09:56:32;23.10;;;13.80;;
44026;SDS011;29696;55.698;37.460;2023-02-01T10:02:16;25.40;;;13.77;;
44026;SDS011;29696;55.698;37.460;2023-02-01T10:04:45;24.90;;;14.57;;
44026;SDS011;29696;55.698;37.460;2023-02-01T10:13:54;25.87;;;15.53;;
44026;SDS011;29696;55.698;37.460;2023-02-01T10:24:02;28.80;;;18.20;;
44026;SDS011;29696;55.698;37.460;2023-02-01T10:37:37;28.77;;;18.17;;
44026;SDS011;29696;55.698;37.460;2023-02-01T10:43:21;20.27;;;13.50;;
44026;SDS011;29696;55.698;37.460;2023-02-01T10:46:27;20.13;;;12.10;;
44026;SDS011;29696;55.698;37.460;2023-02-01T10:48:54;17.90;;;13.13;;
44026;SDS011;29696;55.698;37.460;2023-02-01T10:51:26;19.40;;;12.97;;
44026;SDS011;29696;55.698;37.460;2023-02-01T10:54:03;21.45;;;13.50;;
44026;SDS011;29696;55.698;37.460;2023-02-01T10:56:37;26.47;;;16.20;;
44026;SDS011;29696;55.698;37.460;2023-02-01T10:59:05;23.87;;;14.80;;
44026;SDS011;29696;55.698;37.460;2023-02-01T11:01:41;26.20;;;15.77;;
44026;SDS011;29696;55.698;37.460;2023-02-01T11:04:11;27.10;;;16.03;;
44026;SDS011;29696;55.698;37.460;2023-02-01T11:06:41;29.27;;;18.43;;
44026;SDS011;29696;55.698;37.460;2023-02-01T11:09:20;30.27;;;17.43;;
44026;SDS011;29696;55.698;37.460;2023-02-01T11:11:53;33.93;;;19.50;;
44026;SDS011;29696;55.698;37.460;2023-02-01T11:20:08;32.97;;;18.37;;
44026;SDS011;29696;55.698;37.460;2023-02-01T11:22:53;29.00;;;18.60;;
44026;SDS011;29696;55.698;37.460;2023-02-01T11:25:21;30.70;;;19.80;;
44026;SDS011;29696;55.698;37.460;2023-02-01T11:27:50;29.17;;;18.77;;
44026;SDS011;29696;55.698;37.460;2023-02-01T11:30:22;30.20;;;18.67;;
44026;SDS011;29696;55.698;37.460;2023-02-01T11:33:14;30.43;;;18.73;;
44026;SDS011;29696;55.698;37.460;2023-02-01T11:35:43;25.63;;;17.50;;
44026;SDS011;29696;55.698;37.460;2023-02-01T11:38:13;28.13;;;18.67;;
44026;SDS011;29696;55.698;37.460;2023-02-01T11:40:47;28.50;;;17.33;;
44026;SDS011;29696;55.698;37.460;2023-02-01T11:43:18;31.13;;;17.63;;
44026;SDS011;29696;55.698;37.460;2023-02-01T11:45:59;32.60;;;20.10;;
44026;SDS011;29696;55.698;37.460;2023-02-01T11:48:28;28.25;;;16.33;;
44026;SDS011;29696;55.698;37.460;2023-02-01T12:00:36;26.40;;;14.87;;
44026;SDS011;29696;55.698;37.460;2023-02-01T12:09:46;23.87;;;16.13;;
44026;SDS011;29696;55.698;37.460;2023-02-01T12:19:00;21.93;;;13.70;;
44026;SDS011;29696;55.698;37.460;2023-02-01T12:25:36;20.10;;;12.73;;
44026;SDS011;29696;55.698;37.460;2023-02-01T12:47:50;20.57;;;14.23;;
44026;SDS011;29696;55.698;37.460;2023-02-01T12:50:45;25.08;;;14.65;;
44026;SDS011;29696;55.698;37.460;2023-02-01T12:53:50;23.00;;;11.77;;
44026;SDS011;29696;55.698;37.460;2023-02-01T12:56:44;23.33;;;11.73;;
44026;SDS011;29696;55.698;37.460;2023-02-01T12:59:39;20.48;;;12.98;;
44026;SDS011;29696;55.698;37.460;2023-02-01T13:02:51;18.67;;;13.00;;
44026;SDS011;29696;55.698;37.460;2023-02-01T13:05:45;18.17;;;12.27;;
44026;SDS011;29696;55.698;37.460;2023-02-01T13:08:45;17.67;;;10.53;;
44026;SDS011;29696;55.698;37.460;2023-02-01T13:11:35;22.67;;;12.13;;
44026;SDS011;29696;55.698;37.460;2023-02-01T13:17:11;17.70;;;13.00;;
44026;SDS011;29696;55.698;37.460;2023-02-01T13:26:05;20.57;;;12.27;;
44026;SDS011;29696;55.698;37.460;2023-02-01T13:31:32;23.80;;;14.80;;
44026;SDS011;29696;55.698;37.460;2023-02-01T13:37:59;19.73;;;12.10;;
44026;SDS011;29696;55.698;37.460;2023-02-01T13:44:14;24.20;;;12.87;;
44026;SDS011;29696;55.698;37.460;2023-02-01T13:46:45;39.83;;;14.57;;
44026;SDS011;29696;55.698;37.460;2023-02-01T13:52:25;22.93;;;12.60;;
44026;SDS011;29696;55.698;37.460;2023-02-01T14:04:46;19.40;;;11.00;;
44026;SDS011;29696;55.698;37.460;2023-02-01T14:07:21;17.75;;;11.85;;
44026;SDS011;29696;55.698;37.460;2023-02-01T14:09:48;18.73;;;10.87;;
44026;SDS011;29696;55.698;37.460;2023-02-01T14:15:24;21.55;;;12.80;;
44026;SDS011;29696;55.698;37.460;2023-02-01T14:17:53;21.13;;;13.60;;
44026;SDS011;29696;55.698;37.460;2023-02-01T14:23:19;15.93;;;10.70;;
44026;SDS011;29696;55.698;37.460;2023-02-01T14:25:59;19.67;;;12.37;;
44026;SDS011;29696;55.698;37.460;2023-02-01T14:28:29;18.27;;;12.50;;
44026;SDS011;29696;55.698;37.460;2023-02-01T14:30:56;17.30;;;11.53;;
44026;SDS011;29696;55.698;37.460;2023-02-01T14:33:25;22.00;;;11.80;;
44026;SDS011;29696;55.698;37.460;2023-02-01T14:35:59;17.57;;;14.37;;
44026;SDS011;29696;55.698;37.460;2023-02-01T14:47:04;20.50;;;12.90;;
44026;SDS011;29696;55.698;37.460;2023-02-01T14:53:17;17.10;;;10.07;;
44026;SDS011;29696;55.698;37.460;2023-02-01T15:01:35;19.20;;;11.40;;
44026;SDS011;29696;55.698;37.460;2023-02-01T15:04:11;18.27;;;12.07;;
44026;SDS011;29696;55.698;37.460;2023-02-01T15:09:42;17.85;;;11.93;;
44026;SDS011;29696;55.698;37.460;2023-02-01T15:18:01;16.33;;;10.40;;
44026;SDS011;29696;55.698;37.460;2023-02-01T15:20:29;16.47;;;10.30;;
44026;SDS011;29696;55.698;37.460;2023-02-01T15:23:01;15.70;;;10.23;;
44026;SDS011;29696;55.698;37.460;2023-02-01T15:25:34;13.43;;;10.87;;
44026;SDS011;29696;55.698;37.460;2023-02-01T15:28:02;15.20;;;10.23;;
44026;SDS011;29696;55.698;37.460;2023-02-01T15:30:33;18.17;;;10.90;;
44026;SDS011;29696;55.698;37.460;2023-02-01T15:33:05;15.83;;;10.60;;
44026;SDS011;29696;55.698;37.460;2023-02-01T15:35:45;17.93;;;11.57;;
44026;SDS011;29696;55.698;37.460;2023-02-01T15:41:15;20.60;;;9.07;;
44026;SDS011;29696;55.698;37.460;2023-02-01T15:44:18;17.47;;;10.73;;
44026;SDS011;29696;55.698;37.460;2023-02-01T15:46:48;19.87;;;10.63;;
44026;SDS011;29696;55.698;37.460;2023-02-01T15:49:21;17.17;;;9.63;;
44026;SDS011;29696;55.698;37.460;2023-02-01T15:51:56;19.87;;;11.90;;
44026;SDS011;29696;55.698;37.460;2023-02-01T15:54:26;19.63;;;10.57;;
44026;SDS011;29696;55.698;37.460;2023-02-01T15:56:57;18.30;;;12.80;;
44026;SDS011;29696;55.698;37.460;2023-02-01T15:59:29;19.07;;;12.00;;
44026;SDS011;29696;55.698;37.460;2023-02-01T16:02:01;21.07;;;13.23;;
44026;SDS011;29696;55.698;37.460;2023-02-01T16:04:27;21.23;;;10.60;;
44026;SDS011;29696;55.698;37.460;2023-02-01T16:06:59;19.30;;;12.73;;
44026;SDS011;29696;55.698;37.460;2023-02-01T16:09:39;19.37;;;11.97;;
44026;SDS011;29696;55.698;37.460;2023-02-01T16:12:27;17.60;;;11.87;;
44026;SDS011;29696;55.698;37.460;2023-02-01T16:14:56;18.07;;;11.70;;
44026;SDS011;29696;55.698;37.460;2023-02-01T16:17:23;18.37;;;12.23;;
44026;SDS011;29696;55.698;37.460;2023-02-01T16:19:50;22.80;;;12.30;;
44026;SDS011;29696;55.698;37.460;2023-02-01T16:22:16;19.57;;;12.07;;
44026;SDS011;29696;55.698;37.460;2023-02-01T16:24:43;20.40;;;11.80;;
44026;SDS011;29696;55.698;37.460;2023-02-01T16:27:09;19.40;;;11.50;;
44026;SDS011;29696;55.698;37.460;2023-02-01T16:29:35;19.20;;;11.17;;
44026;SDS011;29696;55.698;37.460;2023-02-01T16:32:02;19.90;;;12.63;;
44026;SDS011;29696;55.698;37.460;2023-02-01T16:34:29;19.60;;;12.57;;
44026;SDS011;29696;55.698;37.460;2023-02-01T16:36:56;20.90;;;13.03;;
44026;SDS011;29696;55.698;37.460;2023-02-01T16:39:23;20.03;;;13.20;;
44026;SDS011;29696;55.698;37.460;2023-02-01T16:41:50;16.03;;;10.47;;
44026;SDS011;29696;55.698;37.460;2023-02-01T16:44:16;19.77;;;10.43;;
44026;SDS011;29696;55.698;37.460;2023-02-01T16:46:43;20.53;;;13.07;;
44026;SDS011;29696;55.698;37.460;2023-02-01T16:49:21;16.60;;;10.70;;
44026;SDS011;29696;55.698;37.460;2023-02-01T16:51:49;17.83;;;12.17;;
44026;SDS011;29696;55.698;37.460;2023-02-01T16:54:19;20.00;;;11.07;;
44026;SDS011;29696;55.698;37.460;2023-02-01T16:56:46;19.47;;;10.70;;
44026;SDS011;29696;55.698;37.460;2023-02-01T16:59:13;20.50;;;12.90;;
44026;SDS011;29696;55.698;37.460;2023-02-01T17:01:40;21.00;;;11.70;;
44026;SDS011;29696;55.698;37.460;2023-02-01T17:04:08;13.80;;;9.37;;
44026;SDS011;29696;55.698;37.460;2023-02-01T17:06:35;23.97;;;12.17;;
44026;SDS011;29696;55.698;37.460;2023-02-01T17:09:03;22.60;;;11.30;;
44026;SDS011;29696;55.698;37.460;2023-02-01T17:11:30;18.30;;;11.43;;
44026;SDS011;29696;55.698;37.460;2023-02-01T17:16:56;17.97;;;12.10;;
44026;SDS011;29696;55.698;37.460;2023-02-01T17:19:23;14.63;;;9.60;;
44026;SDS011;29696;55.698;37.460;2023-02-01T17:21:51;19.67;;;11.60;;
44026;SDS011;29696;55.698;37.460;2023-02-01T17:24:23;19.47;;;11.20;;
44026;SDS011;29696;55.698;37.460;2023-02-01T17:26:53;16.63;;;10.30;;
44026;SDS011;29696;55.698;37.460;2023-02-01T17:29:20;17.97;;;11.03;;
44026;SDS011;29696;55.698;37.460;2023-02-01T17:31:50;19.70;;;10.90;;
44026;SDS011;29696;55.698;37.460;2023-02-01T17:34:19;20.03;;;11.03;;
44026;SDS011;29696;55.698;37.460;2023-02-01T17:36:47;14.30;;;9.80;;
44026;SDS011;29696;55.698;37.460;2023-02-01T17:39:14;16.33;;;9.77;;
44026;SDS011;29696;55.698;37.460;2023-02-01T17:42:02;14.90;;;9.23;;
44026;SDS011;29696;55.698;37.460;2023-02-01T17:44:29;17.87;;;10.27;;
44026;SDS011;29696;55.698;37.460;2023-02-01T17:46:56;14.40;;;8.37;;
44026;SDS011;29696;55.698;37.460;2023-02-01T17:49:24;14.13;;;9.00;;
44026;SDS011;29696;55.698;37.460;2023-02-01T17:51:53;15.87;;;10.37;;
44026;SDS011;29696;55.698;37.460;2023-02-01T17:54:21;13.73;;;7.80;;
44026;SDS011;29696;55.698;37.460;2023-02-01T17:56:47;14.13;;;9.83;;
44026;SDS011;29696;55.698;37.460;2023-02-01T17:59:14;16.30;;;9.20;;
44026;SDS011;29696;55.698;37.460;2023-02-01T18:01:41;16.17;;;9.23;;
44026;SDS011;29696;55.698;37.460;2023-02-01T18:04:11;16.00;;;8.23;;
44026;SDS011;29696;55.698;37.460;2023-02-01T18:06:39;15.20;;;9.10;;